createdAt,value
2023-03-10T00:01:15.340Z,53.34
2023-03-10T00:03:43.418Z,53.39
2023-03-10T00:06:13.752Z,53.41
2023-03-10T00:08:42.275Z,53.42
2023-03-10T00:11:10.924Z,53.42
2023-03-10T00:13:39.420Z,53.37
2023-03-10T00:16:08.024Z,53.41
2023-03-10T00:18:36.391Z,53.38
2023-03-10T00:21:05.275Z,53.27
2023-03-10T00:23:34.408Z,53.21
2023-03-10T00:26:03.790Z,53.21
2023-03-10T00:28:31.739Z,53.27
2023-03-10T00:31:00.771Z,53.25
2023-03-10T00:33:30.370Z,53.26
2023-03-10T00:36:09.506Z,53.17
2023-03-10T00:38:37.680Z,53.17
2023-03-10T00:41:07.486Z,53.17
2023-03-10T00:43:36.389Z,53.29
2023-03-10T00:46:05.731Z,53.25
2023-03-10T00:48:34.530Z,53.35
2023-03-10T00:51:03.281Z,53.23
2023-03-10T00:53:31.672Z,53.28
2023-03-10T00:56:08.232Z,53.29
2023-03-10T00:58:36.419Z,53.24
2023-03-10T01:01:05.321Z,53.30
2023-03-10T01:03:33.298Z,53.28
2023-03-10T01:06:01.475Z,53.33
2023-03-10T01:08:30.883Z,53.33
2023-03-10T01:11:00.185Z,53.23
2023-03-10T01:13:28.264Z,53.20
2023-03-10T01:15:56.144Z,53.27
2023-03-10T01:18:24.288Z,53.18
2023-03-10T01:20:52.391Z,53.13
2023-03-10T01:23:24.665Z,53.19
2023-03-10T01:25:53.197Z,53.17
2023-03-10T01:28:21.866Z,53.13
2023-03-10T01:30:50.224Z,53.07
2023-03-10T01:33:18.155Z,53.16
2023-03-10T01:35:46.205Z,53.13
2023-03-10T01:38:14.163Z,53.08
2023-03-10T01:40:47.369Z,53.15
2023-03-10T01:43:22.258Z,53.16
2023-03-10T01:45:53.124Z,53.10
2023-03-10T01:48:22.717Z,53.09
2023-03-10T01:50:54.066Z,53.08
2023-03-10T01:53:22.769Z,53.16
2023-03-10T01:55:53.282Z,53.12
2023-03-10T01:58:23.307Z,53.22
2023-03-10T02:00:53.064Z,53.24
2023-03-10T02:03:30.109Z,53.20
2023-03-10T02:06:03.950Z,53.22
2023-03-10T02:08:35.565Z,53.27
2023-03-10T02:11:03.956Z,53.26
2023-03-10T02:13:32.150Z,53.33
2023-03-10T02:16:00.665Z,53.24
2023-03-10T02:18:30.848Z,53.19
2023-03-10T02:21:02.584Z,53.12
2023-03-10T02:23:51.280Z,53.01
2023-03-10T02:26:56.273Z,53.11
2023-03-10T02:29:27.107Z,53.15
2023-03-10T02:31:56.501Z,53.27
2023-03-10T02:34:25.622Z,53.17
2023-03-10T02:36:53.701Z,53.07
2023-03-10T02:39:22.080Z,53.19
2023-03-10T02:41:50.709Z,53.11
2023-03-10T02:44:21.407Z,53.07
2023-03-10T02:46:49.612Z,52.95
2023-03-10T02:49:19.501Z,53.10
2023-03-10T02:51:48.103Z,53.05
2023-03-10T02:54:18.029Z,53.02
2023-03-10T02:56:46.807Z,53.07
2023-03-10T02:59:16.481Z,53.04
2023-03-10T03:01:49.198Z,53.07
2023-03-10T03:04:18.869Z,53.05
2023-03-10T03:06:48.110Z,53.06
2023-03-10T03:09:16.693Z,53.19
2023-03-10T03:11:46.478Z,53.12
2023-03-10T03:14:14.797Z,53.16
2023-03-10T03:16:43.752Z,53.08
2023-03-10T03:19:12.174Z,52.93
2023-03-10T03:21:40.560Z,52.96
2023-03-10T03:24:08.533Z,53.04
2023-03-10T03:26:37.632Z,52.97
2023-03-10T03:29:12.255Z,52.92
2023-03-10T03:31:41.918Z,53.02
2023-03-10T03:34:16.905Z,52.97
2023-03-10T03:36:45.805Z,53.02
2023-03-10T03:39:17.655Z,52.94
2023-03-10T03:41:49.331Z,52.89
2023-03-10T03:44:17.699Z,52.94
2023-03-10T03:46:46.190Z,53.01
2023-03-10T03:49:15.368Z,53.13
2023-03-10T03:51:44.188Z,53.11
2023-03-10T03:54:12.666Z,53.05
2023-03-10T03:56:41.054Z,52.94
2023-03-10T03:59:09.915Z,53.02
2023-03-10T04:01:39.563Z,53.00
2023-03-10T04:04:07.740Z,53.03
2023-03-10T04:06:36.022Z,53.00
2023-03-10T04:09:06.659Z,52.84
2023-03-10T04:11:35.154Z,52.97
2023-03-10T04:14:03.459Z,52.89
2023-03-10T04:16:31.908Z,52.97
2023-03-10T04:19:01.841Z,53.05
2023-03-10T04:21:30.037Z,53.02
2023-03-10T04:23:58.797Z,52.99
2023-03-10T04:26:28.506Z,52.93
2023-03-10T04:28:57.617Z,53.10
2023-03-10T04:31:26.676Z,52.98
2023-03-10T04:33:54.997Z,53.04
2023-03-10T04:36:23.219Z,53.11
2023-03-10T04:38:54.417Z,53.02
2023-03-10T04:41:24.548Z,52.97
2023-03-10T04:43:52.627Z,53.03
2023-03-10T04:46:21.174Z,53.14
2023-03-10T04:48:49.606Z,53.14
2023-03-10T04:51:17.876Z,52.98
2023-03-10T04:53:49.426Z,53.05
2023-03-10T04:56:18.019Z,53.10
2023-03-10T04:58:46.169Z,53.01
2023-03-10T05:01:15.701Z,53.01
2023-03-10T05:03:50.030Z,53.02
2023-03-10T05:06:20.160Z,52.99
2023-03-10T05:08:58.045Z,53.09
2023-03-10T05:11:26.648Z,52.86
2023-03-10T05:13:54.605Z,53.06
2023-03-10T05:16:23.036Z,53.15
2023-03-10T05:18:51.994Z,53.07
2023-03-10T05:21:23.551Z,52.96
2023-03-10T05:23:52.587Z,52.82
2023-03-10T05:26:20.825Z,52.74
2023-03-10T05:28:49.175Z,52.81
2023-03-10T05:31:26.332Z,52.81
2023-03-10T05:33:58.558Z,52.99
2023-03-10T05:36:26.826Z,53.09
2023-03-10T05:38:55.246Z,53.08
2023-03-10T05:41:23.300Z,53.17
2023-03-10T05:43:54.145Z,53.09
2023-03-10T05:46:22.542Z,53.22
2023-03-10T05:48:53.978Z,53.03
2023-03-10T05:51:22.261Z,53.13
2023-03-10T05:53:50.653Z,52.97
2023-03-10T05:56:23.222Z,53.08
2023-03-10T05:58:54.269Z,53.13
2023-03-10T06:01:26.032Z,53.14
2023-03-10T06:03:54.064Z,53.16
2023-03-10T06:06:22.182Z,53.11
2023-03-10T06:08:50.258Z,53.14
2023-03-10T06:11:18.843Z,53.10
2023-03-10T06:13:46.925Z,52.99
2023-03-10T06:16:14.945Z,53.11
2023-03-10T06:18:43.443Z,53.09
2023-03-10T06:21:12.696Z,53.15
2023-03-10T06:23:41.154Z,53.27
2023-03-10T06:26:12.024Z,53.22
2023-03-10T06:28:41.419Z,53.16
2023-03-10T06:31:12.776Z,53.13
2023-03-10T06:33:40.964Z,53.26
2023-03-10T06:36:10.308Z,53.12
2023-03-10T06:38:38.947Z,53.32
2023-03-10T06:41:07.638Z,53.35
2023-03-10T06:43:35.973Z,53.32
2023-03-10T06:46:06.017Z,53.38
2023-03-10T06:48:34.840Z,53.29
2023-03-10T06:51:05.880Z,53.21
2023-03-10T06:53:34.060Z,53.29
2023-03-10T06:56:12.940Z,53.27
2023-03-10T06:58:41.472Z,53.22
2023-03-10T07:01:18.369Z,53.27
2023-03-10T07:03:46.524Z,53.31
2023-03-10T07:06:14.695Z,53.35
2023-03-10T07:08:42.674Z,53.30
2023-03-10T07:11:11.060Z,53.35
2023-03-10T07:13:39.040Z,53.44
2023-03-10T07:16:07.276Z,53.32
2023-03-10T07:18:35.396Z,53.47
2023-03-10T07:21:06.965Z,53.36
2023-03-10T07:23:35.219Z,53.33
2023-03-10T07:26:05.962Z,53.36
2023-03-10T07:28:34.445Z,53.45
2023-03-10T07:31:03.466Z,53.49
2023-03-10T07:33:31.621Z,53.61
2023-03-10T07:36:00.273Z,53.59
2023-03-10T07:38:28.265Z,53.79
2023-03-10T07:40:56.264Z,53.78
2023-03-10T07:43:24.742Z,53.77
2023-03-10T07:45:52.828Z,53.93
2023-03-10T07:48:20.808Z,53.93
2023-03-10T07:50:58.625Z,53.96
2023-03-10T07:53:26.988Z,53.90
2023-03-10T07:55:55.029Z,53.94
2023-03-10T07:58:23.338Z,54.02
2023-03-10T08:00:55.805Z,54.04
2023-03-10T08:03:25.144Z,54.00
2023-03-10T08:05:53.504Z,54.08
2023-03-10T08:08:21.676Z,54.14
2023-03-10T08:10:49.649Z,54.17
2023-03-10T08:13:17.771Z,54.10
2023-03-10T08:15:45.831Z,54.18
2023-03-10T08:18:13.889Z,54.23
2023-03-10T08:20:41.910Z,54.22
2023-03-10T08:23:09.741Z,54.20
2023-03-10T08:25:38.104Z,54.17
2023-03-10T08:28:06.092Z,54.26
2023-03-10T08:30:34.067Z,54.29
2023-03-10T08:33:02.384Z,54.37
2023-03-10T08:35:30.457Z,54.44
2023-03-10T08:37:58.401Z,54.37
2023-03-10T08:40:26.499Z,54.40
2023-03-10T08:42:54.537Z,54.44
2023-03-10T08:45:22.521Z,54.57
2023-03-10T08:47:50.421Z,54.50
2023-03-10T08:50:18.677Z,54.49
2023-03-10T08:52:46.860Z,54.63
2023-03-10T08:55:15.034Z,54.56
2023-03-10T08:57:43.113Z,54.67
2023-03-10T09:00:13.235Z,54.67
2023-03-10T09:02:42.457Z,54.62
2023-03-10T09:05:10.719Z,54.66
2023-03-10T09:07:38.800Z,54.76
2023-03-10T09:10:07.171Z,54.71
2023-03-10T09:12:38.708Z,54.72
2023-03-10T09:15:07.834Z,54.78
2023-03-10T09:17:36.015Z,54.81
2023-03-10T09:20:06.543Z,54.88
2023-03-10T09:22:34.520Z,54.97
2023-03-10T09:25:02.449Z,54.99
2023-03-10T09:27:30.669Z,54.97
2023-03-10T09:30:00.646Z,55.15
2023-03-10T09:32:29.740Z,55.13
2023-03-10T09:34:57.758Z,55.14
2023-03-10T09:37:25.844Z,55.19
2023-03-10T09:39:54.025Z,55.30
2023-03-10T09:42:39.490Z,55.33
2023-03-10T09:45:26.301Z,55.32
2023-03-10T09:48:09.829Z,55.38
2023-03-10T09:50:37.734Z,55.48
2023-03-10T09:53:07.429Z,55.48
2023-03-10T09:55:47.877Z,55.51
2023-03-10T09:58:37.124Z,55.53
2023-03-10T10:01:06.654Z,55.59
2023-03-10T10:03:52.792Z,55.64
2023-03-10T10:06:28.351Z,55.69
2023-03-10T10:09:04.585Z,55.70
2023-03-10T10:11:34.965Z,55.71
2023-03-10T10:14:29.402Z,55.78
2023-03-10T10:17:02.295Z,55.73
2023-03-10T10:19:30.316Z,55.91
2023-03-10T10:22:15.385Z,55.95
2023-03-10T10:24:56.851Z,55.96
2023-03-10T10:27:25.683Z,56.11
2023-03-10T10:29:53.610Z,56.03
2023-03-10T10:32:21.999Z,56.10
2023-03-10T10:34:50.380Z,56.11
2023-03-10T10:37:21.325Z,56.20
2023-03-10T10:39:51.044Z,56.17
2023-03-10T10:42:24.458Z,56.33
2023-03-10T10:44:56.814Z,56.33
2023-03-10T10:47:27.879Z,56.45
2023-03-10T10:50:08.635Z,56.41
2023-03-10T10:52:36.720Z,56.29
2023-03-10T10:55:05.600Z,56.29
2023-03-10T10:57:35.521Z,56.27
2023-03-10T11:00:25.335Z,56.28
2023-03-10T11:02:54.227Z,56.33
2023-03-10T11:05:24.510Z,56.31
2023-03-10T11:07:52.487Z,56.36
2023-03-10T11:10:25.474Z,56.47
2023-03-10T11:12:56.366Z,56.44
2023-03-10T11:15:40.421Z,56.53
2023-03-10T11:18:18.147Z,56.51
2023-03-10T11:20:54.929Z,56.46
2023-03-10T11:23:29.644Z,56.53
2023-03-10T11:25:57.629Z,56.49
2023-03-10T11:28:28.681Z,56.47
2023-03-10T11:31:16.925Z,56.54
2023-03-10T11:33:44.989Z,56.45
2023-03-10T11:36:21.779Z,56.52
2023-03-10T11:38:52.296Z,56.50
2023-03-10T11:41:23.440Z,56.40
2023-03-10T11:44:00.728Z,56.30
2023-03-10T11:46:31.300Z,56.44
2023-03-10T11:49:06.322Z,56.43
2023-03-10T11:51:50.849Z,56.42
2023-03-10T11:54:26.897Z,56.48
2023-03-10T11:56:55.499Z,56.33
2023-03-10T11:59:26.129Z,56.35
2023-03-10T12:01:54.204Z,56.33
2023-03-10T12:04:33.127Z,56.25
2023-03-10T12:07:03.974Z,56.21
2023-03-10T12:09:38.394Z,56.15
2023-03-10T12:12:07.612Z,56.13
2023-03-10T12:14:35.877Z,56.08
2023-03-10T12:17:04.871Z,56.16
2023-03-10T12:19:33.185Z,56.02
2023-03-10T12:22:20.257Z,55.92
2023-03-10T12:24:48.241Z,55.90
2023-03-10T12:27:16.523Z,55.87
2023-03-10T12:29:44.592Z,55.92
2023-03-10T12:32:32.899Z,55.84
2023-03-10T12:35:19.836Z,55.84
2023-03-10T12:37:47.813Z,55.85
2023-03-10T12:40:41.779Z,55.82
2023-03-10T12:43:35.948Z,55.79
2023-03-10T12:46:04.957Z,55.74
2023-03-10T12:48:35.588Z,55.69
2023-03-10T12:51:09.695Z,55.62
2023-03-10T12:54:10.007Z,55.60
2023-03-10T12:56:42.934Z,55.57
2023-03-10T12:59:16.598Z,55.58
2023-03-10T13:01:55.598Z,55.42
2023-03-10T13:04:26.884Z,55.37
2023-03-10T13:07:03.960Z,55.32
2023-03-10T13:09:43.743Z,55.29
2023-03-10T13:12:30.308Z,55.15
2023-03-10T13:15:00.019Z,55.19
2023-03-10T13:17:29.851Z,55.15
2023-03-10T13:19:59.240Z,55.16
2023-03-10T13:22:27.841Z,55.20
2023-03-10T13:25:00.442Z,55.18
2023-03-10T13:27:30.340Z,55.07
2023-03-10T13:30:04.548Z,55.08
2023-03-10T13:32:33.482Z,55.08
2023-03-10T13:35:14.819Z,54.99
2023-03-10T13:37:42.905Z,54.99
2023-03-10T13:40:11.185Z,54.99
2023-03-10T13:42:44.173Z,55.00
2023-03-10T13:45:23.911Z,54.89
2023-03-10T13:47:52.459Z,54.95
2023-03-10T13:50:20.660Z,55.01
2023-03-10T13:52:57.430Z,54.91
2023-03-10T13:55:26.549Z,54.95
2023-03-10T13:57:55.535Z,54.93
2023-03-10T14:00:24.651Z,54.89
2023-03-10T14:02:53.767Z,54.89
2023-03-10T14:05:42.294Z,54.96
2023-03-10T14:08:32.573Z,54.92
2023-03-10T14:11:19.477Z,54.92
2023-03-10T14:13:47.963Z,55.05
2023-03-10T14:16:16.088Z,54.90
2023-03-10T14:18:44.214Z,54.92
2023-03-10T14:21:24.661Z,54.92
2023-03-10T14:23:53.676Z,54.89
2023-03-10T14:26:21.631Z,54.86
2023-03-10T14:28:49.623Z,54.87
2023-03-10T14:31:22.462Z,54.85
2023-03-10T14:33:50.892Z,54.83
2023-03-10T14:36:19.230Z,54.84
2023-03-10T14:38:47.649Z,54.84
2023-03-10T14:41:19.004Z,54.68
2023-03-10T14:43:47.077Z,54.72
2023-03-10T14:46:15.423Z,54.73
2023-03-10T14:48:45.942Z,54.70
2023-03-10T14:51:22.662Z,54.64
2023-03-10T14:53:53.866Z,54.63
2023-03-10T14:56:22.302Z,54.60
2023-03-10T14:58:51.819Z,54.62
2023-03-10T15:01:21.150Z,54.55
2023-03-10T15:03:49.608Z,54.50
2023-03-10T15:06:19.116Z,54.47
2023-03-10T15:08:47.103Z,54.33
2023-03-10T15:11:17.408Z,54.42
2023-03-10T15:13:49.580Z,54.39
2023-03-10T15:16:17.617Z,54.37
2023-03-10T15:18:47.277Z,54.34
2023-03-10T15:21:16.171Z,54.26
2023-03-10T15:23:44.148Z,54.25
2023-03-10T15:26:13.037Z,54.22
2023-03-10T15:28:41.151Z,54.16
2023-03-10T15:31:09.113Z,54.16
2023-03-10T15:33:37.070Z,54.17
2023-03-10T15:36:06.343Z,54.10
2023-03-10T15:38:34.350Z,54.09
2023-03-10T15:41:04.693Z,54.08
2023-03-10T15:43:32.647Z,54.00
2023-03-10T15:46:04.968Z,54.02
2023-03-10T15:48:34.329Z,54.01
2023-03-10T15:51:02.312Z,54.03
2023-03-10T15:53:30.228Z,54.06
2023-03-10T15:55:58.364Z,53.99
2023-03-10T15:58:26.224Z,53.88
2023-03-10T16:00:54.199Z,53.92
2023-03-10T16:03:22.201Z,53.83
2023-03-10T16:05:50.347Z,53.78
2023-03-10T16:08:19.369Z,53.75
2023-03-10T16:10:52.244Z,53.72
2023-03-10T16:13:20.617Z,53.68
2023-03-10T16:15:48.625Z,53.69
2023-03-10T16:18:16.669Z,53.75
2023-03-10T16:20:44.642Z,53.77
2023-03-10T16:23:12.633Z,53.79
2023-03-10T16:25:41.092Z,53.77
2023-03-10T16:28:08.974Z,53.90
2023-03-10T16:30:37.054Z,53.83
2023-03-10T16:33:05.328Z,53.89
2023-03-10T16:35:33.316Z,53.80
2023-03-10T16:38:01.273Z,53.91
2023-03-10T16:40:29.361Z,53.83
2023-03-10T16:42:57.327Z,53.93
2023-03-10T16:45:25.417Z,53.94
2023-03-10T16:47:53.481Z,53.87
2023-03-10T16:50:21.502Z,53.87
2023-03-10T16:52:55.180Z,53.90
2023-03-10T16:55:23.240Z,53.79
2023-03-10T16:57:51.321Z,53.87
2023-03-10T17:00:21.159Z,53.84
2023-03-10T17:02:49.534Z,53.81
2023-03-10T17:05:18.103Z,53.80
2023-03-10T17:07:55.075Z,53.90
2023-03-10T17:10:24.079Z,53.68
2023-03-10T17:12:52.060Z,53.77
2023-03-10T17:15:20.128Z,53.71
2023-03-10T17:17:48.101Z,53.61
2023-03-10T17:20:18.586Z,53.60
2023-03-10T17:22:46.619Z,53.65
2023-03-10T17:25:15.012Z,53.62
2023-03-10T17:27:43.752Z,53.59
2023-03-10T17:30:12.461Z,53.46
2023-03-10T17:32:40.658Z,53.59
2023-03-10T17:35:09.048Z,53.49
2023-03-10T17:37:37.322Z,53.57
2023-03-10T17:40:05.816Z,53.54
2023-03-10T17:42:33.770Z,53.51
2023-03-10T17:45:06.451Z,53.45
2023-03-10T17:47:35.164Z,53.45
2023-03-10T17:50:03.844Z,53.42
2023-03-10T17:52:31.934Z,53.45
2023-03-10T17:54:59.750Z,53.39
2023-03-10T17:57:27.875Z,53.31
2023-03-10T17:59:56.689Z,53.31
2023-03-10T18:02:24.726Z,53.26
2023-03-10T18:04:52.924Z,53.21
2023-03-10T18:07:20.898Z,53.28
2023-03-10T18:09:48.969Z,53.18
2023-03-10T18:12:17.061Z,53.22
2023-03-10T18:14:45.172Z,53.17
2023-03-10T18:17:13.097Z,53.34
2023-03-10T18:19:41.080Z,53.25
2023-03-10T18:22:09.360Z,53.17
2023-03-10T18:24:38.167Z,53.03
2023-03-10T18:27:06.218Z,52.97
2023-03-10T18:29:34.146Z,53.02
2023-03-10T18:32:02.591Z,53.12
2023-03-10T18:34:30.684Z,53.02
2023-03-10T18:36:58.738Z,52.97
2023-03-10T18:39:27.009Z,53.12
2023-03-10T18:41:55.413Z,53.09
2023-03-10T18:44:23.479Z,53.19
2023-03-10T18:46:51.545Z,53.02
2023-03-10T18:49:19.832Z,52.99
2023-03-10T18:51:47.805Z,52.98
2023-03-10T18:54:16.091Z,53.03
2023-03-10T18:56:44.487Z,53.03
2023-03-10T18:59:12.657Z,52.98
2023-03-10T19:01:40.659Z,52.91
2023-03-10T19:04:08.800Z,52.88
2023-03-10T19:06:36.793Z,52.96
2023-03-10T19:09:08.688Z,52.85
2023-03-10T19:11:37.173Z,52.84
2023-03-10T19:14:05.772Z,52.83
2023-03-10T19:16:37.377Z,52.82
2023-03-10T19:19:05.650Z,52.89
2023-03-10T19:21:39.983Z,52.87
2023-03-10T19:24:08.258Z,52.91
2023-03-10T19:26:36.236Z,52.80
2023-03-10T19:29:04.188Z,52.88
2023-03-10T19:31:32.131Z,52.83
2023-03-10T19:34:00.155Z,52.86
2023-03-10T19:36:29.685Z,52.88
2023-03-10T19:38:57.655Z,52.88
2023-03-10T19:41:25.818Z,52.92
2023-03-10T19:43:54.845Z,53.04
2023-03-10T19:46:25.290Z,53.04
2023-03-10T19:48:53.313Z,53.00
2023-03-10T19:51:25.603Z,52.96
2023-03-10T19:53:54.412Z,53.02
2023-03-10T19:56:22.971Z,52.93
2023-03-10T19:58:51.159Z,53.05
2023-03-10T20:01:22.920Z,53.12
2023-03-10T20:03:51.769Z,53.02
2023-03-10T20:06:20.091Z,53.04
2023-03-10T20:08:48.372Z,53.06
2023-03-10T20:11:17.485Z,53.17
2023-03-10T20:13:46.598Z,53.07
2023-03-10T20:16:15.620Z,53.14
2023-03-10T20:18:43.759Z,53.09
2023-03-10T20:21:12.206Z,53.10
2023-03-10T20:23:40.208Z,53.09
2023-03-10T20:26:09.213Z,53.03
2023-03-10T20:28:39.536Z,53.17
2023-03-10T20:31:10.065Z,53.09
2023-03-10T20:33:38.035Z,53.09
2023-03-10T20:36:08.651Z,53.06
2023-03-10T20:38:36.756Z,53.09
2023-03-10T20:41:04.945Z,53.16
2023-03-10T20:43:33.008Z,53.23
2023-03-10T20:46:00.993Z,53.15
2023-03-10T20:48:29.156Z,53.24
2023-03-10T20:50:57.262Z,53.31
2023-03-10T20:53:25.304Z,53.16
2023-03-10T20:55:53.289Z,53.21
2023-03-10T20:58:21.151Z,53.09
2023-03-10T21:00:49.147Z,53.22
2023-03-10T21:03:17.105Z,53.19
2023-03-10T21:05:45.179Z,53.21
2023-03-10T21:08:13.973Z,53.21
2023-03-10T21:10:42.155Z,53.16
2023-03-10T21:13:10.325Z,53.21
2023-03-10T21:15:39.434Z,53.18
2023-03-10T21:18:07.397Z,53.14
2023-03-10T21:20:35.483Z,53.11
2023-03-10T21:23:03.459Z,53.16
2023-03-10T21:25:31.647Z,53.25
2023-03-10T21:27:59.814Z,53.18
2023-03-10T21:30:28.867Z,53.18
2023-03-10T21:32:57.704Z,53.10
2023-03-10T21:35:26.511Z,53.14
2023-03-10T21:37:55.629Z,53.22
2023-03-10T21:40:24.453Z,53.14
2023-03-10T21:42:52.377Z,53.29
2023-03-10T21:45:21.470Z,53.18
2023-03-10T21:47:50.376Z,53.19
2023-03-10T21:50:19.166Z,53.19
2023-03-10T21:52:48.359Z,53.23
2023-03-10T21:55:21.558Z,53.23
2023-03-10T21:57:50.048Z,53.20
2023-03-10T22:00:19.968Z,53.27
2023-03-10T22:02:47.942Z,53.21
2023-03-10T22:05:17.652Z,53.16
2023-03-10T22:07:45.634Z,53.18
2023-03-10T22:10:14.419Z,53.08
2023-03-10T22:12:42.419Z,53.22
2023-03-10T22:15:14.357Z,53.19
2023-03-10T22:17:42.436Z,53.15
2023-03-10T22:20:13.401Z,53.18
2023-03-10T22:22:41.348Z,53.29
2023-03-10T22:25:10.238Z,53.18
2023-03-10T22:27:38.317Z,53.09
2023-03-10T22:30:06.702Z,53.17
2023-03-10T22:32:34.937Z,53.18
2023-03-10T22:35:03.468Z,53.12
2023-03-10T22:37:31.444Z,53.13
2023-03-10T22:39:59.574Z,53.23
2023-03-10T22:42:27.805Z,53.24
2023-03-10T22:44:55.772Z,53.21
2023-03-10T22:47:23.848Z,53.33
2023-03-10T22:49:51.802Z,53.20
2023-03-10T22:52:19.901Z,53.29
2023-03-10T22:54:47.876Z,53.26
2023-03-10T22:57:15.841Z,53.21
2023-03-10T22:59:43.868Z,53.28
2023-03-10T23:02:11.799Z,53.27
2023-03-10T23:04:39.767Z,53.29
2023-03-10T23:07:07.648Z,53.38
2023-03-10T23:09:35.517Z,53.29
2023-03-10T23:12:03.500Z,53.26
2023-03-10T23:14:31.871Z,53.30
2023-03-10T23:16:59.850Z,53.32
2023-03-10T23:19:27.825Z,53.30
2023-03-10T23:21:55.899Z,53.30
2023-03-10T23:24:24.189Z,53.35
2023-03-10T23:26:52.257Z,53.31
2023-03-10T23:29:20.231Z,53.36
2023-03-10T23:31:48.268Z,53.37
2023-03-10T23:34:16.500Z,53.32
2023-03-10T23:36:44.666Z,53.36
2023-03-10T23:39:13.766Z,53.36
2023-03-10T23:41:41.857Z,53.34
2023-03-10T23:44:09.922Z,53.33
2023-03-10T23:46:38.014Z,53.27
2023-03-10T23:49:05.917Z,53.23
2023-03-10T23:51:33.849Z,53.29
2023-03-10T23:54:01.927Z,53.32
2023-03-10T23:56:29.894Z,53.26
2023-03-10T23:58:59.111Z,53.17
